sensor_id;sensor_type;location;lat;lon;timestamp;pressure;altitude;pressure_sealevel;temperature;humidity
64019;BME280;66942;52.138;5.216;2023-04-26T00:00:44;101990.0;;;10.48;51.94
64019;BME280;66942;52.138;5.216;2023-04-26T00:02:20;101989.0;;;10.28;51.33
64019;BME280;66942;52.138;5.216;2023-04-26T00:05:32;101987.0;;;10.22;51.35
64019;BME280;66942;52.138;5.216;2023-04-26T00:07:08;101988.0;;;10.14;52.0
64019;BME280;66942;52.138;5.216;2023-04-26T00:08:44;101986.0;;;10.18;51.35
64019;BME280;66942;52.138;5.216;2023-04-26T00:11:57;101988.0;;;10.13;51.49
64019;BME280;66942;52.138;5.216;2023-04-26T00:13:34;101990.0;;;9.84;52.23
64019;BME280;66942;52.138;5.216;2023-04-26T00:15:10;101989.0;;;9.89;51.84
64019;BME280;66942;52.138;5.216;2023-04-26T00:18:22;101992.0;;;9.84;51.82
64019;BME280;66942;52.138;5.216;2023-04-26T00:19:59;101993.0;;;9.81;51.99
64019;BME280;66942;52.138;5.216;2023-04-26T00:21:35;101993.0;;;9.81;52.04
64019;BME280;66942;52.138;5.216;2023-04-26T00:23:12;101994.0;;;9.61;52.61
64019;BME280;66942;52.138;5.216;2023-04-26T00:26:24;101990.0;;;9.49;52.31
64019;BME280;66942;52.138;5.216;2023-04-26T00:28:00;101993.0;;;9.69;51.93
64019;BME280;66942;52.138;5.216;2023-04-26T00:29:36;101989.0;;;9.48;52.2
64019;BME280;66942;52.138;5.216;2023-04-26T00:32:49;101989.0;;;9.39;52.74
64019;BME280;66942;52.138;5.216;2023-04-26T00:34:30;101990.0;;;9.32;52.06
64019;BME280;66942;52.138;5.216;2023-04-26T00:36:07;101987.0;;;9.21;52.66
64019;BME280;66942;52.138;5.216;2023-04-26T00:37:43;101988.0;;;9.21;53.2
64019;BME280;66942;52.138;5.216;2023-04-26T00:40:55;101993.0;;;9.19;52.58
64019;BME280;66942;52.138;5.216;2023-04-26T00:42:31;101988.0;;;9.26;52.57
64019;BME280;66942;52.138;5.216;2023-04-26T00:44:07;101985.0;;;9.13;52.74
64019;BME280;66942;52.138;5.216;2023-04-26T00:47:20;101984.0;;;9.11;52.65
64019;BME280;66942;52.138;5.216;2023-04-26T00:48:56;101985.0;;;9.0;53.18
64019;BME280;66942;52.138;5.216;2023-04-26T00:50:32;101985.0;;;9.14;52.71
64019;BME280;66942;52.138;5.216;2023-04-26T00:53:46;101984.0;;;9.18;52.39
64019;BME280;66942;52.138;5.216;2023-04-26T00:55:22;101986.0;;;9.02;52.48
64019;BME280;66942;52.138;5.216;2023-04-26T00:56:59;101987.0;;;9.1;52.17
64019;BME280;66942;52.138;5.216;2023-04-26T01:00:14;101986.0;;;8.83;53.18
64019;BME280;66942;52.138;5.216;2023-04-26T01:01:50;101987.0;;;8.82;53.26
64019;BME280;66942;52.138;5.216;2023-04-26T01:03:26;101986.0;;;8.93;52.79
64019;BME280;66942;52.138;5.216;2023-04-26T01:05:03;101988.0;;;8.89;53.3
64019;BME280;66942;52.138;5.216;2023-04-26T01:08:16;101988.0;;;8.72;52.75
64019;BME280;66942;52.138;5.216;2023-04-26T01:09:54;101987.0;;;8.85;52.56
64019;BME280;66942;52.138;5.216;2023-04-26T01:11:31;101988.0;;;8.76;52.95
64019;BME280;66942;52.138;5.216;2023-04-26T01:14:45;101988.0;;;8.82;52.78
64019;BME280;66942;52.138;5.216;2023-04-26T01:16:23;101992.0;;;8.88;52.57
64019;BME280;66942;52.138;5.216;2023-04-26T01:17:58;101993.0;;;8.68;53.06
64019;BME280;66942;52.138;5.216;2023-04-26T01:19:34;101994.0;;;8.65;53.19
64019;BME280;66942;52.138;5.216;2023-04-26T01:22:46;101994.0;;;8.44;52.97
64019;BME280;66942;52.138;5.216;2023-04-26T01:24:23;101998.0;;;8.51;53.08
64019;BME280;66942;52.138;5.216;2023-04-26T01:25:59;101995.0;;;8.55;52.84
64019;BME280;66942;52.138;5.216;2023-04-26T01:29:14;101994.0;;;8.49;53.45
64019;BME280;66942;52.138;5.216;2023-04-26T01:30:50;101993.0;;;8.27;53.48
64019;BME280;66942;52.138;5.216;2023-04-26T01:32:26;101997.0;;;8.32;53.19
64019;BME280;66942;52.138;5.216;2023-04-26T01:35:38;101999.0;;;8.15;53.59
64019;BME280;66942;52.138;5.216;2023-04-26T01:37:15;101995.0;;;8.1;53.17
64019;BME280;66942;52.138;5.216;2023-04-26T01:38:51;101992.0;;;8.08;53.61
64019;BME280;66942;52.138;5.216;2023-04-26T01:42:04;102001.0;;;8.05;53.66
64019;BME280;66942;52.138;5.216;2023-04-26T01:43:40;101997.0;;;8.09;53.46
64019;BME280;66942;52.138;5.216;2023-04-26T01:45:16;101990.0;;;8.24;53.06
64019;BME280;66942;52.138;5.216;2023-04-26T01:46:52;101989.0;;;8.38;52.62
64019;BME280;66942;52.138;5.216;2023-04-26T01:50:06;101984.0;;;8.05;52.93
64019;BME280;66942;52.138;5.216;2023-04-26T01:51:42;101986.0;;;8.06;53.05
64019;BME280;66942;52.138;5.216;2023-04-26T01:53:18;101991.0;;;7.98;53.44
64019;BME280;66942;52.138;5.216;2023-04-26T01:56:31;101985.0;;;8.1;53.16
64019;BME280;66942;52.138;5.216;2023-04-26T01:58:07;101983.0;;;8.08;53.0
64019;BME280;66942;52.138;5.216;2023-04-26T01:59:43;101989.0;;;7.89;53.22
64019;BME280;66942;52.138;5.216;2023-04-26T02:02:56;101982.0;;;7.94;53.55
64019;BME280;66942;52.138;5.216;2023-04-26T02:04:33;101987.0;;;8.01;53.68
64019;BME280;66942;52.138;5.216;2023-04-26T02:06:10;101984.0;;;8.09;53.13
64019;BME280;66942;52.138;5.216;2023-04-26T02:07:46;101989.0;;;7.99;53.05
64019;BME280;66942;52.138;5.216;2023-04-26T02:10:58;101988.0;;;7.81;53.44
64019;BME280;66942;52.138;5.216;2023-04-26T02:12:35;101993.0;;;7.79;53.2
64019;BME280;66942;52.138;5.216;2023-04-26T02:14:11;101992.0;;;7.74;53.57
64019;BME280;66942;52.138;5.216;2023-04-26T02:17:24;101992.0;;;7.76;53.68
64019;BME280;66942;52.138;5.216;2023-04-26T02:19:02;101994.0;;;7.72;53.52
64019;BME280;66942;52.138;5.216;2023-04-26T02:20:39;101991.0;;;7.65;53.57
64019;BME280;66942;52.138;5.216;2023-04-26T02:23:51;101990.0;;;7.65;53.67
64019;BME280;66942;52.138;5.216;2023-04-26T02:25:27;101988.0;;;7.84;53.15
64019;BME280;66942;52.138;5.216;2023-04-26T02:27:03;101987.0;;;7.81;53.53
64019;BME280;66942;52.138;5.216;2023-04-26T02:28:40;101985.0;;;7.6;53.24
64019;BME280;66942;52.138;5.216;2023-04-26T02:31:53;101987.0;;;7.5;53.46
64019;BME280;66942;52.138;5.216;2023-04-26T02:33:29;101988.0;;;7.48;53.65
64019;BME280;66942;52.138;5.216;2023-04-26T02:35:06;101991.0;;;7.56;53.61
64019;BME280;66942;52.138;5.216;2023-04-26T02:38:18;101993.0;;;7.69;53.9
64019;BME280;66942;52.138;5.216;2023-04-26T02:39:54;101992.0;;;7.52;53.4
64019;BME280;66942;52.138;5.216;2023-04-26T02:41:31;101993.0;;;7.52;53.09
64019;BME280;66942;52.138;5.216;2023-04-26T02:44:44;101986.0;;;7.53;53.88
64019;BME280;66942;52.138;5.216;2023-04-26T02:46:21;101989.0;;;7.77;53.02
64019;BME280;66942;52.138;5.216;2023-04-26T02:47:59;101983.0;;;7.46;53.5
64019;BME280;66942;52.138;5.216;2023-04-26T02:49:35;101987.0;;;7.48;53.66
64019;BME280;66942;52.138;5.216;2023-04-26T02:52:47;101987.0;;;7.42;53.23
64019;BME280;66942;52.138;5.216;2023-04-26T02:54:23;101989.0;;;7.34;53.37
64019;BME280;66942;52.138;5.216;2023-04-26T02:56:00;101986.0;;;7.54;52.85
64019;BME280;66942;52.138;5.216;2023-04-26T02:59:12;101984.0;;;7.79;52.05
64019;BME280;66942;52.138;5.216;2023-04-26T03:00:48;101985.0;;;7.85;51.93
64019;BME280;66942;52.138;5.216;2023-04-26T03:02:24;101983.0;;;7.77;52.11
64019;BME280;66942;52.138;5.216;2023-04-26T03:05:36;101983.0;;;7.69;52.35
64019;BME280;66942;52.138;5.216;2023-04-26T03:07:13;101976.0;;;7.64;52.42
64019;BME280;66942;52.138;5.216;2023-04-26T03:08:50;101976.0;;;7.41;53.06
64019;BME280;66942;52.138;5.216;2023-04-26T03:10:26;101977.0;;;7.36;52.88
64019;BME280;66942;52.138;5.216;2023-04-26T03:13:38;101982.0;;;7.39;52.66
64019;BME280;66942;52.138;5.216;2023-04-26T03:15:14;101982.0;;;7.42;52.44
64019;BME280;66942;52.138;5.216;2023-04-26T03:16:50;101978.0;;;7.44;52.66
64019;BME280;66942;52.138;5.216;2023-04-26T03:20:03;101980.0;;;7.21;52.84
64019;BME280;66942;52.138;5.216;2023-04-26T03:21:40;101977.0;;;7.25;53.4
64019;BME280;66942;52.138;5.216;2023-04-26T03:23:16;101978.0;;;7.56;52.0
64019;BME280;66942;52.138;5.216;2023-04-26T03:26:28;101978.0;;;7.22;52.76
64019;BME280;66942;52.138;5.216;2023-04-26T03:28:04;101975.0;;;7.27;52.8
64019;BME280;66942;52.138;5.216;2023-04-26T03:29:40;101980.0;;;7.14;53.17
64019;BME280;66942;52.138;5.216;2023-04-26T03:32:53;101976.0;;;6.95;53.54
64019;BME280;66942;52.138;5.216;2023-04-26T03:34:29;101975.0;;;7.01;53.57
64019;BME280;66942;52.138;5.216;2023-04-26T03:36:06;101971.0;;;7.01;53.64
64019;BME280;66942;52.138;5.216;2023-04-26T03:37:43;101967.0;;;6.92;53.69
64019;BME280;66942;52.138;5.216;2023-04-26T03:40:55;101963.0;;;6.83;53.16
64019;BME280;66942;52.138;5.216;2023-04-26T03:42:31;101964.0;;;6.85;53.84
64019;BME280;66942;52.138;5.216;2023-04-26T03:44:07;101969.0;;;6.89;54.22
64019;BME280;66942;52.138;5.216;2023-04-26T03:47:21;101969.0;;;6.8;53.81
64019;BME280;66942;52.138;5.216;2023-04-26T03:48:58;101968.0;;;6.87;54.26
64019;BME280;66942;52.138;5.216;2023-04-26T03:50:34;101968.0;;;6.77;53.76
64019;BME280;66942;52.138;5.216;2023-04-26T03:53:46;101967.0;;;6.82;53.71
64019;BME280;66942;52.138;5.216;2023-04-26T03:55:22;101970.0;;;6.88;53.52
64019;BME280;66942;52.138;5.216;2023-04-26T03:56:58;101972.0;;;6.94;53.13
64019;BME280;66942;52.138;5.216;2023-04-26T03:58:34;101975.0;;;6.74;53.85
64019;BME280;66942;52.138;5.216;2023-04-26T04:01:48;101974.0;;;6.8;53.61
64019;BME280;66942;52.138;5.216;2023-04-26T04:03:24;101978.0;;;7.0;52.97
64019;BME280;66942;52.138;5.216;2023-04-26T04:05:00;101975.0;;;6.75;53.11
64019;BME280;66942;52.138;5.216;2023-04-26T04:08:12;101977.0;;;6.85;53.2
64019;BME280;66942;52.138;5.216;2023-04-26T04:09:48;101977.0;;;6.98;53.01
64019;BME280;66942;52.138;5.216;2023-04-26T04:11:24;101974.0;;;7.01;52.98
64019;BME280;66942;52.138;5.216;2023-04-26T04:14:37;101972.0;;;7.14;52.37
64019;BME280;66942;52.138;5.216;2023-04-26T04:16:13;101967.0;;;7.03;53.22
64019;BME280;66942;52.138;5.216;2023-04-26T04:17:49;101973.0;;;6.99;53.62
64019;BME280;66942;52.138;5.216;2023-04-26T04:21:02;101972.0;;;6.96;53.25
64019;BME280;66942;52.138;5.216;2023-04-26T04:22:38;101971.0;;;6.95;53.22
64019;BME280;66942;52.138;5.216;2023-04-26T04:24:15;101966.0;;;7.05;53.09
64019;BME280;66942;52.138;5.216;2023-04-26T04:25:50;101963.0;;;7.37;52.29
64019;BME280;66942;52.138;5.216;2023-04-26T04:29:03;101962.0;;;7.31;52.09
64019;BME280;66942;52.138;5.216;2023-04-26T04:30:40;101963.0;;;6.9;53.47
64019;BME280;66942;52.138;5.216;2023-04-26T04:32:16;101967.0;;;7.0;53.02
64019;BME280;66942;52.138;5.216;2023-04-26T04:35:29;101966.0;;;6.91;53.95
64019;BME280;66942;52.138;5.216;2023-04-26T04:37:06;101965.0;;;6.87;54.34
64019;BME280;66942;52.138;5.216;2023-04-26T04:38:42;101970.0;;;6.96;53.91
64019;BME280;66942;52.138;5.216;2023-04-26T04:41:55;101970.0;;;6.9;53.38
64019;BME280;66942;52.138;5.216;2023-04-26T04:43:31;101971.0;;;7.15;53.32
64019;BME280;66942;52.138;5.216;2023-04-26T04:45:08;101976.0;;;7.15;53.42
64019;BME280;66942;52.138;5.216;2023-04-26T04:46:44;101974.0;;;7.4;53.02
64019;BME280;66942;52.138;5.216;2023-04-26T04:49:56;101974.0;;;7.41;52.96
64019;BME280;66942;52.138;5.216;2023-04-26T04:51:32;101980.0;;;7.41;52.97
64019;BME280;66942;52.138;5.216;2023-04-26T04:53:08;101980.0;;;7.54;52.85
64019;BME280;66942;52.138;5.216;2023-04-26T04:56:21;101980.0;;;7.56;53.05
64019;BME280;66942;52.138;5.216;2023-04-26T04:57:57;101983.0;;;7.73;52.46
64019;BME280;66942;52.138;5.216;2023-04-26T04:59:33;101983.0;;;7.62;53.06
64019;BME280;66942;52.138;5.216;2023-04-26T05:02:45;101986.0;;;7.72;53.11
64019;BME280;66942;52.138;5.216;2023-04-26T05:04:21;101989.0;;;7.71;53.08
64019;BME280;66942;52.138;5.216;2023-04-26T05:05:58;101989.0;;;7.76;53.21
64019;BME280;66942;52.138;5.216;2023-04-26T05:07:34;101997.0;;;7.98;52.56
64019;BME280;66942;52.138;5.216;2023-04-26T05:10:47;101990.0;;;8.14;52.7
64019;BME280;66942;52.138;5.216;2023-04-26T05:12:23;101990.0;;;7.87;53.72
64019;BME280;66942;52.138;5.216;2023-04-26T05:13:59;101984.0;;;8.09;53.02
64019;BME280;66942;52.138;5.216;2023-04-26T05:17:11;101984.0;;;8.26;52.88
64019;BME280;66942;52.138;5.216;2023-04-26T05:18:47;101987.0;;;8.1;53.88
64019;BME280;66942;52.138;5.216;2023-04-26T05:20:24;101988.0;;;8.31;53.92
64019;BME280;66942;52.138;5.216;2023-04-26T05:23:38;101996.0;;;8.44;53.7
64019;BME280;66942;52.138;5.216;2023-04-26T05:25:14;101994.0;;;8.56;53.88
64019;BME280;66942;52.138;5.216;2023-04-26T05:26:50;102001.0;;;8.57;54.49
64019;BME280;66942;52.138;5.216;2023-04-26T05:30:03;101994.0;;;8.72;53.46
64019;BME280;66942;52.138;5.216;2023-04-26T05:31:39;101993.0;;;8.82;53.84
64019;BME280;66942;52.138;5.216;2023-04-26T05:33:15;101992.0;;;9.16;53.54
64019;BME280;66942;52.138;5.216;2023-04-26T05:34:51;101993.0;;;9.23;54.02
64019;BME280;66942;52.138;5.216;2023-04-26T05:38:04;101993.0;;;9.64;52.81
64019;BME280;66942;52.138;5.216;2023-04-26T05:39:40;101989.0;;;9.71;53.04
64019;BME280;66942;52.138;5.216;2023-04-26T05:41:16;101987.0;;;10.08;52.24
64019;BME280;66942;52.138;5.216;2023-04-26T05:44:28;101987.0;;;10.1;52.81
64019;BME280;66942;52.138;5.216;2023-04-26T05:46:05;101991.0;;;10.14;53.25
64019;BME280;66942;52.138;5.216;2023-04-26T05:47:41;101994.0;;;10.7;52.49
64019;BME280;66942;52.138;5.216;2023-04-26T05:50:53;101994.0;;;10.83;52.47
64019;BME280;66942;52.138;5.216;2023-04-26T05:52:29;101991.0;;;10.81;52.74
64019;BME280;66942;52.138;5.216;2023-04-26T05:54:05;101993.0;;;11.15;52.67
64019;BME280;66942;52.138;5.216;2023-04-26T05:55:41;101997.0;;;11.4;53.21
64019;BME280;66942;52.138;5.216;2023-04-26T05:58:54;101999.0;;;11.63;53.06
64019;BME280;66942;52.138;5.216;2023-04-26T06:00:30;101999.0;;;11.88;53.61
64019;BME280;66942;52.138;5.216;2023-04-26T06:02:06;102005.0;;;12.22;52.52
64019;BME280;66942;52.138;5.216;2023-04-26T06:05:20;101999.0;;;12.7;52.03
64019;BME280;66942;52.138;5.216;2023-04-26T06:06:56;101997.0;;;13.1;49.64
64019;BME280;66942;52.138;5.216;2023-04-26T06:08:32;101995.0;;;13.1;50.75
64019;BME280;66942;52.138;5.216;2023-04-26T06:11:46;101991.0;;;13.37;49.81
64019;BME280;66942;52.138;5.216;2023-04-26T06:13:22;101989.0;;;13.37;48.74
64019;BME280;66942;52.138;5.216;2023-04-26T06:14:58;101989.0;;;13.35;48.31
64019;BME280;66942;52.138;5.216;2023-04-26T06:18:10;101990.0;;;14.03;47.26
64019;BME280;66942;52.138;5.216;2023-04-26T06:19:46;101990.0;;;13.77;47.37
64019;BME280;66942;52.138;5.216;2023-04-26T06:21:23;101995.0;;;13.43;49.68
64019;BME280;66942;52.138;5.216;2023-04-26T06:22:59;101997.0;;;13.61;48.67
64019;BME280;66942;52.138;5.216;2023-04-26T06:26:12;102000.0;;;13.36;48.95
64019;BME280;66942;52.138;5.216;2023-04-26T06:27:48;102005.0;;;13.63;48.65
64019;BME280;66942;52.138;5.216;2023-04-26T06:29:24;102005.0;;;13.64;48.83
64019;BME280;66942;52.138;5.216;2023-04-26T06:32:37;102006.0;;;13.8;48.07
64019;BME280;66942;52.138;5.216;2023-04-26T06:34:13;102005.0;;;13.86;47.54
64019;BME280;66942;52.138;5.216;2023-04-26T06:35:49;102006.0;;;14.18;47.25
64019;BME280;66942;52.138;5.216;2023-04-26T06:39:03;102015.0;;;14.26;45.81
64019;BME280;66942;52.138;5.216;2023-04-26T06:40:39;102015.0;;;14.38;43.54
64019;BME280;66942;52.138;5.216;2023-04-26T06:42:15;102014.0;;;14.52;42.38
64019;BME280;66942;52.138;5.216;2023-04-26T06:43:51;102012.0;;;14.64;43.49
64019;BME280;66942;52.138;5.216;2023-04-26T06:47:05;102015.0;;;14.81;43.09
64019;BME280;66942;52.138;5.216;2023-04-26T06:48:41;102013.0;;;14.51;45.01
64019;BME280;66942;52.138;5.216;2023-04-26T06:50:18;102015.0;;;14.47;43.35
64019;BME280;66942;52.138;5.216;2023-04-26T06:53:30;102015.0;;;14.69;43.59
64019;BME280;66942;52.138;5.216;2023-04-26T06:55:07;102016.0;;;14.75;42.52
64019;BME280;66942;52.138;5.216;2023-04-26T06:56:43;102015.0;;;14.42;42.86
64019;BME280;66942;52.138;5.216;2023-04-26T06:59:56;102013.0;;;14.69;43.26
64019;BME280;66942;52.138;5.216;2023-04-26T07:01:34;102014.0;;;14.73;43.43
64019;BME280;66942;52.138;5.216;2023-04-26T07:03:10;102011.0;;;14.72;43.69
64019;BME280;66942;52.138;5.216;2023-04-26T07:04:46;102018.0;;;14.78;41.87
64019;BME280;66942;52.138;5.216;2023-04-26T07:08:00;102015.0;;;14.77;42.86
64019;BME280;66942;52.138;5.216;2023-04-26T07:09:36;102013.0;;;14.82;41.39
64019;BME280;66942;52.138;5.216;2023-04-26T07:11:13;102015.0;;;14.93;42.3
64019;BME280;66942;52.138;5.216;2023-04-26T07:14:25;102012.0;;;14.8;40.53
64019;BME280;66942;52.138;5.216;2023-04-26T07:16:01;102013.0;;;14.87;41.63
64019;BME280;66942;52.138;5.216;2023-04-26T07:17:37;102007.0;;;15.16;40.86
64019;BME280;66942;52.138;5.216;2023-04-26T07:20:48;102005.0;;;15.46;41.87
64019;BME280;66942;52.138;5.216;2023-04-26T07:22:24;102011.0;;;15.54;39.71
64019;BME280;66942;52.138;5.216;2023-04-26T07:24:00;102009.0;;;15.33;42.16
64019;BME280;66942;52.138;5.216;2023-04-26T07:27:13;102007.0;;;15.66;38.86
64019;BME280;66942;52.138;5.216;2023-04-26T07:28:49;102003.0;;;15.56;39.96
64019;BME280;66942;52.138;5.216;2023-04-26T07:30:26;102005.0;;;15.76;38.06
64019;BME280;66942;52.138;5.216;2023-04-26T07:32:02;102002.0;;;15.41;38.62
64019;BME280;66942;52.138;5.216;2023-04-26T07:35:14;102005.0;;;15.68;38.53
64019;BME280;66942;52.138;5.216;2023-04-26T07:36:51;102005.0;;;15.84;38.9
64019;BME280;66942;52.138;5.216;2023-04-26T07:38:27;102008.0;;;15.91;37.35
64019;BME280;66942;52.138;5.216;2023-04-26T07:41:40;102012.0;;;16.16;36.53
64019;BME280;66942;52.138;5.216;2023-04-26T07:43:16;102013.0;;;16.29;35.56
64019;BME280;66942;52.138;5.216;2023-04-26T07:44:53;102017.0;;;16.09;36.53
64019;BME280;66942;52.138;5.216;2023-04-26T07:48:07;102015.0;;;15.91;35.56
64019;BME280;66942;52.138;5.216;2023-04-26T07:49:43;102015.0;;;16.09;35.69
64019;BME280;66942;52.138;5.216;2023-04-26T07:51:20;102016.0;;;15.72;39.1
64019;BME280;66942;52.138;5.216;2023-04-26T07:52:56;102021.0;;;15.97;36.85
64019;BME280;66942;52.138;5.216;2023-04-26T07:56:08;102018.0;;;15.85;35.85
64019;BME280;66942;52.138;5.216;2023-04-26T07:57:44;102021.0;;;15.87;37.86
64019;BME280;66942;52.138;5.216;2023-04-26T07:59:20;102024.0;;;16.18;36.76
64019;BME280;66942;52.138;5.216;2023-04-26T08:02:32;102030.0;;;15.97;34.92
64019;BME280;66942;52.138;5.216;2023-04-26T08:04:09;102030.0;;;16.02;37.62
64019;BME280;66942;52.138;5.216;2023-04-26T08:05:45;102028.0;;;16.06;37.81
64019;BME280;66942;52.138;5.216;2023-04-26T08:08:57;102034.0;;;15.96;37.03
64019;BME280;66942;52.138;5.216;2023-04-26T08:10:33;102030.0;;;16.11;36.51
64019;BME280;66942;52.138;5.216;2023-04-26T08:12:10;102030.0;;;16.07;36.39
64019;BME280;66942;52.138;5.216;2023-04-26T08:13:46;102034.0;;;16.07;36.03
64019;BME280;66942;52.138;5.216;2023-04-26T08:16:58;102036.0;;;16.12;36.36
64019;BME280;66942;52.138;5.216;2023-04-26T08:18:36;102037.0;;;15.99;36.6
64019;BME280;66942;52.138;5.216;2023-04-26T08:20:12;102038.0;;;15.85;38.37
64019;BME280;66942;52.138;5.216;2023-04-26T08:23:24;102038.0;;;15.94;37.99
64019;BME280;66942;52.138;5.216;2023-04-26T08:25:00;102038.0;;;15.76;38.07
64019;BME280;66942;52.138;5.216;2023-04-26T08:26:36;102036.0;;;15.74;38.86
64019;BME280;66942;52.138;5.216;2023-04-26T08:29:49;102036.0;;;15.44;40.93
64019;BME280;66942;52.138;5.216;2023-04-26T08:31:25;102034.0;;;15.59;38.62
64019;BME280;66942;52.138;5.216;2023-04-26T08:33:01;102031.0;;;15.47;39.92
64019;BME280;66942;52.138;5.216;2023-04-26T08:36:14;102031.0;;;15.01;41.33
64019;BME280;66942;52.138;5.216;2023-04-26T08:37:50;102033.0;;;14.96;40.71
64019;BME280;66942;52.138;5.216;2023-04-26T08:39:27;102034.0;;;15.08;39.56
64019;BME280;66942;52.138;5.216;2023-04-26T08:41:04;102030.0;;;15.34;38.71
64019;BME280;66942;52.138;5.216;2023-04-26T08:44:17;102031.0;;;15.48;39.03
64019;BME280;66942;52.138;5.216;2023-04-26T08:45:58;102030.0;;;15.53;38.32
64019;BME280;66942;52.138;5.216;2023-04-26T08:47:39;102033.0;;;15.64;39.69
64019;BME280;66942;52.138;5.216;2023-04-26T08:51:11;102036.0;;;15.54;38.86
64019;BME280;66942;52.138;5.216;2023-04-26T08:52:50;102035.0;;;15.33;40.93
64019;BME280;66942;52.138;5.216;2023-04-26T08:54:27;102034.0;;;15.39;38.81
64019;BME280;66942;52.138;5.216;2023-04-26T08:56:03;102035.0;;;15.26;40.83
64019;BME280;66942;52.138;5.216;2023-04-26T08:59:18;102031.0;;;15.58;38.37
64019;BME280;66942;52.138;5.216;2023-04-26T09:00:55;102034.0;;;15.96;38.06
64019;BME280;66942;52.138;5.216;2023-04-26T09:02:33;102030.0;;;15.88;36.96
64019;BME280;66942;52.138;5.216;2023-04-26T09:04:10;102023.0;;;15.65;36.1
64019;BME280;66942;52.138;5.216;2023-04-26T09:07:29;102017.0;;;15.72;35.96
64019;BME280;66942;52.138;5.216;2023-04-26T09:09:07;102021.0;;;15.85;36.74
64019;BME280;66942;52.138;5.216;2023-04-26T09:10:45;102023.0;;;16.07;36.14
64019;BME280;66942;52.138;5.216;2023-04-26T09:12:22;102025.0;;;15.97;38.14
64019;BME280;66942;52.138;5.216;2023-04-26T09:15:34;102025.0;;;16.11;37.06
64019;BME280;66942;52.138;5.216;2023-04-26T09:17:23;102023.0;;;16.2;35.76
64019;BME280;66942;52.138;5.216;2023-04-26T09:19:01;102023.0;;;16.39;36.35
64019;BME280;66942;52.138;5.216;2023-04-26T09:22:13;102024.0;;;16.52;35.85
64019;BME280;66942;52.138;5.216;2023-04-26T09:23:57;102021.0;;;16.61;34.68
64019;BME280;66942;52.138;5.216;2023-04-26T09:25:34;102026.0;;;16.59;34.83
64019;BME280;66942;52.138;5.216;2023-04-26T09:27:10;102020.0;;;16.77;33.87
64019;BME280;66942;52.138;5.216;2023-04-26T09:30:23;102019.0;;;16.53;33.75
64019;BME280;66942;52.138;5.216;2023-04-26T09:32:00;102023.0;;;16.56;33.29
64019;BME280;66942;52.138;5.216;2023-04-26T09:33:56;102020.0;;;16.23;31.83
64019;BME280;66942;52.138;5.216;2023-04-26T09:35:33;102024.0;;;16.7;34.29
64019;BME280;66942;52.138;5.216;2023-04-26T09:38:46;102024.0;;;16.77;33.1
64019;BME280;66942;52.138;5.216;2023-04-26T09:40:22;102025.0;;;17.0;31.75
64019;BME280;66942;52.138;5.216;2023-04-26T09:42:02;102020.0;;;17.04;31.06
64019;BME280;66942;52.138;5.216;2023-04-26T09:45:16;102028.0;;;17.14;31.73
64019;BME280;66942;52.138;5.216;2023-04-26T09:47:01;102033.0;;;17.13;33.6
64019;BME280;66942;52.138;5.216;2023-04-26T09:48:38;102026.0;;;16.93;31.23
64019;BME280;66942;52.138;5.216;2023-04-26T09:50:25;102028.0;;;17.0;32.79
64019;BME280;66942;52.138;5.216;2023-04-26T09:53:40;102022.0;;;17.13;31.89
64019;BME280;66942;52.138;5.216;2023-04-26T09:55:26;102025.0;;;17.02;33.17
64019;BME280;66942;52.138;5.216;2023-04-26T09:57:03;102026.0;;;16.7;34.71
64019;BME280;66942;52.138;5.216;2023-04-26T09:58:54;102024.0;;;16.36;33.87
64019;BME280;66942;52.138;5.216;2023-04-26T10:00:32;102030.0;;;16.62;33.97
64019;BME280;66942;52.138;5.216;2023-04-26T10:03:50;102024.0;;;16.57;35.32
64019;BME280;66942;52.138;5.216;2023-04-26T10:05:27;102027.0;;;16.59;34.25
64019;BME280;66942;52.138;5.216;2023-04-26T10:07:04;102026.0;;;16.56;35.42
64019;BME280;66942;52.138;5.216;2023-04-26T10:10:18;102021.0;;;16.46;35.36
64019;BME280;66942;52.138;5.216;2023-04-26T10:11:55;102018.0;;;15.98;34.58
64019;BME280;66942;52.138;5.216;2023-04-26T10:13:33;102025.0;;;16.38;35.06
64019;BME280;66942;52.138;5.216;2023-04-26T10:15:10;102017.0;;;16.18;34.42
64019;BME280;66942;52.138;5.216;2023-04-26T10:18:24;102026.0;;;16.71;34.46
64019;BME280;66942;52.138;5.216;2023-04-26T10:20:01;102030.0;;;16.62;34.08
64019;BME280;66942;52.138;5.216;2023-04-26T10:21:40;102030.0;;;16.36;33.97
64019;BME280;66942;52.138;5.216;2023-04-26T10:24:57;102030.0;;;16.47;33.65
64019;BME280;66942;52.138;5.216;2023-04-26T10:26:49;102027.0;;;16.32;33.85
64019;BME280;66942;52.138;5.216;2023-04-26T10:28:57;102030.0;;;16.36;34.79
64019;BME280;66942;52.138;5.216;2023-04-26T10:30:53;102023.0;;;16.18;34.33
64019;BME280;66942;52.138;5.216;2023-04-26T10:32:29;102025.0;;;16.22;33.79
64019;BME280;66942;52.138;5.216;2023-04-26T10:34:21;102027.0;;;16.2;33.39
64019;BME280;66942;52.138;5.216;2023-04-26T10:38:21;102024.0;;;16.05;34.6
64019;BME280;66942;52.138;5.216;2023-04-26T10:40:22;102026.0;;;16.12;36.06
64019;BME280;66942;52.138;5.216;2023-04-26T10:42:16;102023.0;;;16.09;34.56
64019;BME280;66942;52.138;5.216;2023-04-26T10:44:39;102018.0;;;16.18;34.1
64019;BME280;66942;52.138;5.216;2023-04-26T10:46:37;102019.0;;;16.03;36.9
64019;BME280;66942;52.138;5.216;2023-04-26T10:48:14;102020.0;;;16.0;36.93
64019;BME280;66942;52.138;5.216;2023-04-26T10:50:06;102020.0;;;16.13;36.14
64019;BME280;66942;52.138;5.216;2023-04-26T10:52:17;102017.0;;;16.11;34.49
64019;BME280;66942;52.138;5.216;2023-04-26T10:53:58;102024.0;;;16.18;33.49
64019;BME280;66942;52.138;5.216;2023-04-26T10:55:37;102025.0;;;16.36;35.07
64019;BME280;66942;52.138;5.216;2023-04-26T10:57:14;102023.0;;;16.31;33.21
64019;BME280;66942;52.138;5.216;2023-04-26T11:01:02;102027.0;;;16.07;33.78
64019;BME280;66942;52.138;5.216;2023-04-26T11:02:44;102022.0;;;16.09;34.43
64019;BME280;66942;52.138;5.216;2023-04-26T11:04:19;102026.0;;;16.43;33.6
64019;BME280;66942;52.138;5.216;2023-04-26T11:05:56;102027.0;;;16.62;32.92
64019;BME280;66942;52.138;5.216;2023-04-26T11:07:36;102023.0;;;16.34;32.74
64019;BME280;66942;52.138;5.216;2023-04-26T11:11:25;102014.0;;;16.18;32.9